sensor_id;sensor_type;location;lat;lon;timestamp;pressure;altitude;pressure_sealevel;temperature;humidity
17615;BME280;8926;49.720;6.576;2024-01-30T00:01:05;101041.19;;;5.52;93.15
17615;BME280;8926;49.720;6.576;2024-01-30T00:03:30;101045.53;;;5.50;92.77
17615;BME280;8926;49.720;6.576;2024-01-30T00:05:55;101043.81;;;5.49;92.81
17615;BME280;8926;49.720;6.576;2024-01-30T00:08:20;101039.59;;;5.44;93.34
17615;BME280;8926;49.720;6.576;2024-01-30T00:10:46;101036.16;;;5.42;93.27
17615;BME280;8926;49.720;6.576;2024-01-30T00:13:11;101037.88;;;5.43;92.01
17615;BME280;8926;49.720;6.576;2024-01-30T00:15:37;101044.84;;;5.38;92.49
17615;BME280;8926;49.720;6.576;2024-01-30T00:18:02;101036.22;;;5.39;92.96
17615;BME280;8926;49.720;6.576;2024-01-30T00:20:27;101031.09;;;5.33;92.34
17615;BME280;8926;49.720;6.576;2024-01-30T00:22:52;101044.97;;;5.29;92.46
17615;BME280;8926;49.720;6.576;2024-01-30T00:25:17;101038.03;;;5.31;92.28
17615;BME280;8926;49.720;6.576;2024-01-30T00:27:43;101036.31;;;5.30;92.38
17615;BME280;8926;49.720;6.576;2024-01-30T00:30:08;101029.47;;;5.26;92.69
17615;BME280;8926;49.720;6.576;2024-01-30T00:32:33;101035.53;;;5.25;92.00
17615;BME280;8926;49.720;6.576;2024-01-30T00:34:59;101027.81;;;5.22;92.22
17615;BME280;8926;49.720;6.576;2024-01-30T00:37:24;101026.09;;;5.21;92.61
17615;BME280;8926;49.720;6.576;2024-01-30T00:39:49;101027.00;;;5.19;92.43
17615;BME280;8926;49.720;6.576;2024-01-30T00:42:14;101021.94;;;5.09;92.15
17615;BME280;8926;49.720;6.576;2024-01-30T00:44:40;101023.72;;;5.06;93.20
17615;BME280;8926;49.720;6.576;2024-01-30T00:47:05;101031.50;;;5.06;92.92
17615;BME280;8926;49.720;6.576;2024-01-30T00:49:30;101030.69;;;5.02;93.10
17615;BME280;8926;49.720;6.576;2024-01-30T00:51:56;101026.34;;;5.03;92.61
17615;BME280;8926;49.720;6.576;2024-01-30T00:54:21;101026.38;;;5.00;92.64
17615;BME280;8926;49.720;6.576;2024-01-30T00:56:46;101024.69;;;4.99;91.79
17615;BME280;8926;49.720;6.576;2024-01-30T00:59:11;101029.88;;;4.96;91.92
17615;BME280;8926;49.720;6.576;2024-01-30T01:01:36;101034.28;;;4.91;92.19
17615;BME280;8926;49.720;6.576;2024-01-30T01:04:02;101025.72;;;4.87;92.12
17615;BME280;8926;49.720;6.576;2024-01-30T01:06:27;101026.56;;;4.88;92.35
17615;BME280;8926;49.720;6.576;2024-01-30T01:08:52;101026.59;;;4.85;92.52
17615;BME280;8926;49.720;6.576;2024-01-30T01:11:17;101024.00;;;4.86;92.47
17615;BME280;8926;49.720;6.576;2024-01-30T01:13:42;101027.44;;;4.88;92.46
17615;BME280;8926;49.720;6.576;2024-01-30T01:16:08;101023.13;;;4.86;92.25
17615;BME280;8926;49.720;6.576;2024-01-30T01:18:33;101030.06;;;4.84;92.54
17615;BME280;8926;49.720;6.576;2024-01-30T01:20:58;101033.59;;;4.76;92.67
17615;BME280;8926;49.720;6.576;2024-01-30T01:23:24;101031.03;;;4.75;92.59
17615;BME280;8926;49.720;6.576;2024-01-30T01:25:49;101030.19;;;4.71;92.36
17615;BME280;8926;49.720;6.576;2024-01-30T01:28:14;101033.66;;;4.70;91.81
17615;BME280;8926;49.720;6.576;2024-01-30T01:30:39;101031.91;;;4.72;91.68
17615;BME280;8926;49.720;6.576;2024-01-30T01:33:05;101030.25;;;4.68;92.40
17615;BME280;8926;49.720;6.576;2024-01-30T01:35:31;101019.97;;;4.62;92.41
17615;BME280;8926;49.720;6.576;2024-01-30T01:37:56;101024.34;;;4.59;92.54
17615;BME280;8926;49.720;6.576;2024-01-30T01:40:24;101032.94;;;4.61;92.76
17615;BME280;8926;49.720;6.576;2024-01-30T01:42:50;101038.97;;;4.61;92.78
17615;BME280;8926;49.720;6.576;2024-01-30T01:45:17;101027.78;;;4.58;93.57
17615;BME280;8926;49.720;6.576;2024-01-30T01:47:42;101025.19;;;4.59;92.47
17615;BME280;8926;49.720;6.576;2024-01-30T01:50:08;101027.78;;;4.58;92.95
17615;BME280;8926;49.720;6.576;2024-01-30T01:52:33;101033.78;;;4.61;93.51
17615;BME280;8926;49.720;6.576;2024-01-30T01:54:58;101027.75;;;4.62;93.32
17615;BME280;8926;49.720;6.576;2024-01-30T01:57:24;101028.63;;;4.61;93.33
17615;BME280;8926;49.720;6.576;2024-01-30T01:59:49;101033.78;;;4.61;92.79
17615;BME280;8926;49.720;6.576;2024-01-30T02:02:14;101033.00;;;4.56;92.56
17615;BME280;8926;49.720;6.576;2024-01-30T02:04:41;101036.47;;;4.54;93.43
17615;BME280;8926;49.720;6.576;2024-01-30T02:07:06;101029.59;;;4.51;93.78
17615;BME280;8926;49.720;6.576;2024-01-30T02:09:32;101037.31;;;4.54;92.66
17615;BME280;8926;49.720;6.576;2024-01-30T02:11:57;101033.84;;;4.55;93.41
17615;BME280;8926;49.720;6.576;2024-01-30T02:14:22;101033.81;;;4.58;93.79
17615;BME280;8926;49.720;6.576;2024-01-30T02:16:47;101023.50;;;4.55;93.16
17615;BME280;8926;49.720;6.576;2024-01-30T02:19:13;101030.41;;;4.56;92.96
17615;BME280;8926;49.720;6.576;2024-01-30T02:21:38;101029.50;;;4.60;93.10
17615;BME280;8926;49.720;6.576;2024-01-30T02:24:04;101023.50;;;4.55;92.67
17615;BME280;8926;49.720;6.576;2024-01-30T02:26:29;101028.69;;;4.55;91.70
17615;BME280;8926;49.720;6.576;2024-01-30T02:28:55;101033.84;;;4.55;92.24
17615;BME280;8926;49.720;6.576;2024-01-30T02:31:20;101030.44;;;4.53;92.79
17615;BME280;8926;49.720;6.576;2024-01-30T02:33:45;101035.56;;;4.56;92.52
17615;BME280;8926;49.720;6.576;2024-01-30T02:36:10;101026.94;;;4.56;93.11
17615;BME280;8926;49.720;6.576;2024-01-30T02:38:35;101030.41;;;4.56;92.54
17615;BME280;8926;49.720;6.576;2024-01-30T02:41:01;101026.97;;;4.54;92.99
17615;BME280;8926;49.720;6.576;2024-01-30T02:43:26;101025.25;;;4.53;93.76
17615;BME280;8926;49.720;6.576;2024-01-30T02:45:51;101025.28;;;4.50;93.60
17615;BME280;8926;49.720;6.576;2024-01-30T02:48:16;101032.19;;;4.51;92.91
17615;BME280;8926;49.720;6.576;2024-01-30T02:50:41;101033.88;;;4.52;93.43
17615;BME280;8926;49.720;6.576;2024-01-30T02:53:07;101033.91;;;4.49;93.57
17615;BME280;8926;49.720;6.576;2024-01-30T02:55:32;101025.31;;;4.47;93.81
17615;BME280;8926;49.720;6.576;2024-01-30T02:57:57;101033.97;;;4.43;94.38
17615;BME280;8926;49.720;6.576;2024-01-30T03:00:23;101032.25;;;4.42;94.07
17615;BME280;8926;49.720;6.576;2024-01-30T03:02:48;101030.59;;;4.39;93.66
17615;BME280;8926;49.720;6.576;2024-01-30T03:05:13;101025.44;;;4.38;94.33
17615;BME280;8926;49.720;6.576;2024-01-30T03:07:38;101021.13;;;4.37;94.26
17615;BME280;8926;49.720;6.576;2024-01-30T03:10:04;101019.44;;;4.34;94.71
17615;BME280;8926;49.720;6.576;2024-01-30T03:12:29;101024.63;;;4.34;94.73
17615;BME280;8926;49.720;6.576;2024-01-30T03:14:54;101022.03;;;4.33;94.58
17615;BME280;8926;49.720;6.576;2024-01-30T03:17:20;101016.00;;;4.32;94.59
17615;BME280;8926;49.720;6.576;2024-01-30T03:19:45;101021.22;;;4.28;94.77
17615;BME280;8926;49.720;6.576;2024-01-30T03:22:10;101022.16;;;4.21;95.04
17615;BME280;8926;49.720;6.576;2024-01-30T03:24:35;101017.00;;;4.18;95.95
17615;BME280;8926;49.720;6.576;2024-01-30T03:27:00;101018.72;;;4.19;95.98
17615;BME280;8926;49.720;6.576;2024-01-30T03:29:26;101024.72;;;4.24;95.87
17615;BME280;8926;49.720;6.576;2024-01-30T03:31:51;101023.81;;;4.28;94.71
17615;BME280;8926;49.720;6.576;2024-01-30T03:34:16;101025.56;;;4.26;94.85
17615;BME280;8926;49.720;6.576;2024-01-30T03:36:42;101023.00;;;4.23;93.57
17615;BME280;8926;49.720;6.576;2024-01-30T03:39:07;101023.84;;;4.25;95.34
17615;BME280;8926;49.720;6.576;2024-01-30T03:41:32;101029.00;;;4.25;94.03
17615;BME280;8926;49.720;6.576;2024-01-30T03:43:57;101020.47;;;4.17;93.10
17615;BME280;8926;49.720;6.576;2024-01-30T03:46:23;101022.28;;;4.12;93.45
17615;BME280;8926;49.720;6.576;2024-01-30T03:48:48;101022.28;;;4.08;94.58
17615;BME280;8926;49.720;6.576;2024-01-30T03:51:13;101022.31;;;4.05;94.36
17615;BME280;8926;49.720;6.576;2024-01-30T03:53:42;101024.06;;;4.03;95.00
17615;BME280;8926;49.720;6.576;2024-01-30T03:56:08;101024.09;;;4.00;95.12
17615;BME280;8926;49.720;6.576;2024-01-30T03:58:33;101022.34;;;4.02;94.90
17615;BME280;8926;49.720;6.576;2024-01-30T04:00:59;101023.22;;;4.01;94.79
17615;BME280;8926;49.720;6.576;2024-01-30T04:03:24;101030.97;;;4.00;93.34
17615;BME280;8926;49.720;6.576;2024-01-30T04:05:49;101017.25;;;3.93;94.34
17615;BME280;8926;49.720;6.576;2024-01-30T04:08:14;101024.16;;;3.91;93.25
17615;BME280;8926;49.720;6.576;2024-01-30T04:10:40;101021.66;;;3.85;93.67
17615;BME280;8926;49.720;6.576;2024-01-30T04:13:05;101020.81;;;3.83;94.79
17615;BME280;8926;49.720;6.576;2024-01-30T04:15:30;101027.69;;;3.84;94.05
17615;BME280;8926;49.720;6.576;2024-01-30T04:17:59;101028.56;;;3.82;95.22
17615;BME280;8926;49.720;6.576;2024-01-30T04:20:24;101032.91;;;3.78;94.96
17615;BME280;8926;49.720;6.576;2024-01-30T04:22:50;101029.44;;;3.79;94.83
17615;BME280;8926;49.720;6.576;2024-01-30T04:25:15;101023.41;;;3.80;95.19
17615;BME280;8926;49.720;6.576;2024-01-30T04:27:40;101024.28;;;3.79;94.76
17615;BME280;8926;49.720;6.576;2024-01-30T04:30:06;101030.31;;;3.78;94.30
17615;BME280;8926;49.720;6.576;2024-01-30T04:32:31;101032.94;;;3.75;95.36
17615;BME280;8926;49.720;6.576;2024-01-30T04:34:57;101032.94;;;3.72;94.19
17615;BME280;8926;49.720;6.576;2024-01-30T04:37:23;101026.06;;;3.71;94.53
17615;BME280;8926;49.720;6.576;2024-01-30T04:39:48;101026.94;;;3.70;93.84
17615;BME280;8926;49.720;6.576;2024-01-30T04:42:13;101026.94;;;3.68;94.14
17615;BME280;8926;49.720;6.576;2024-01-30T04:44:38;101029.50;;;3.70;94.11
17615;BME280;8926;49.720;6.576;2024-01-30T04:47:04;101029.53;;;3.67;94.56
17615;BME280;8926;49.720;6.576;2024-01-30T04:49:31;101033.00;;;3.66;94.80
17615;BME280;8926;49.720;6.576;2024-01-30T04:51:56;101033.00;;;3.66;94.14
17615;BME280;8926;49.720;6.576;2024-01-30T04:54:21;101031.28;;;3.65;94.08
17615;BME280;8926;49.720;6.576;2024-01-30T04:56:46;101031.34;;;3.60;94.47
17615;BME280;8926;49.720;6.576;2024-01-30T04:59:12;101031.31;;;3.62;95.45
17615;BME280;8926;49.720;6.576;2024-01-30T05:01:37;101031.28;;;3.65;94.72
17615;BME280;8926;49.720;6.576;2024-01-30T05:04:02;101028.75;;;3.62;94.18
17615;BME280;8926;49.720;6.576;2024-01-30T05:06:28;101037.38;;;3.56;93.77
17615;BME280;8926;49.720;6.576;2024-01-30T05:08:53;101032.22;;;3.58;94.96
17615;BME280;8926;49.720;6.576;2024-01-30T05:11:18;101039.13;;;3.56;94.15
17615;BME280;8926;49.720;6.576;2024-01-30T05:13:44;101033.97;;;3.53;93.98
17615;BME280;8926;49.720;6.576;2024-01-30T05:16:09;101040.88;;;3.51;93.72
17615;BME280;8926;49.720;6.576;2024-01-30T05:18:34;101040.00;;;3.50;94.20
17615;BME280;8926;49.720;6.576;2024-01-30T05:21:00;101034.88;;;3.46;95.09
17615;BME280;8926;49.720;6.576;2024-01-30T05:23:25;101038.31;;;3.48;94.83
17615;BME280;8926;49.720;6.576;2024-01-30T05:25:50;101035.72;;;3.49;94.82
17615;BME280;8926;49.720;6.576;2024-01-30T05:28:15;101040.03;;;3.49;94.49
17615;BME280;8926;49.720;6.576;2024-01-30T05:30:40;101039.16;;;3.50;94.52
17615;BME280;8926;49.720;6.576;2024-01-30T05:33:06;101043.53;;;3.38;94.26
17615;BME280;8926;49.720;6.576;2024-01-30T05:35:31;101039.25;;;3.37;93.59
17615;BME280;8926;49.720;6.576;2024-01-30T05:37:56;101040.13;;;3.36;95.90
17615;BME280;8926;49.720;6.576;2024-01-30T05:40:21;101037.50;;;3.39;95.67
17615;BME280;8926;49.720;6.576;2024-01-30T05:42:47;101044.41;;;3.37;94.57
17615;BME280;8926;49.720;6.576;2024-01-30T05:45:12;101034.97;;;3.33;95.33
17615;BME280;8926;49.720;6.576;2024-01-30T05:47:38;101047.06;;;3.28;95.95
17615;BME280;8926;49.720;6.576;2024-01-30T05:50:04;101042.75;;;3.29;95.33
17615;BME280;8926;49.720;6.576;2024-01-30T05:52:29;101053.06;;;3.29;95.82
17615;BME280;8926;49.720;6.576;2024-01-30T05:54:54;101051.31;;;3.34;95.39
17615;BME280;8926;49.720;6.576;2024-01-30T05:57:19;101046.19;;;3.28;95.18
17615;BME280;8926;49.720;6.576;2024-01-30T05:59:44;101037.59;;;3.26;95.11
17615;BME280;8926;49.720;6.576;2024-01-30T06:02:10;101043.63;;;3.26;95.14
17615;BME280;8926;49.720;6.576;2024-01-30T06:04:35;101040.16;;;3.27;95.02
17615;BME280;8926;49.720;6.576;2024-01-30T06:07:00;101043.59;;;3.31;95.34
17615;BME280;8926;49.720;6.576;2024-01-30T06:09:27;101038.41;;;3.32;96.06
17615;BME280;8926;49.720;6.576;2024-01-30T06:11:52;101047.03;;;3.31;95.31
17615;BME280;8926;49.720;6.576;2024-01-30T06:14:17;101047.91;;;3.30;95.68
17615;BME280;8926;49.720;6.576;2024-01-30T06:16:42;101040.16;;;3.27;95.18
17615;BME280;8926;49.720;6.576;2024-01-30T06:19:07;101032.41;;;3.29;94.99
17615;BME280;8926;49.720;6.576;2024-01-30T06:21:32;101035.00;;;3.30;95.54
17615;BME280;8926;49.720;6.576;2024-01-30T06:24:01;101045.31;;;3.30;95.36
17615;BME280;8926;49.720;6.576;2024-01-30T06:26:27;101044.47;;;3.28;95.47
17615;BME280;8926;49.720;6.576;2024-01-30T06:28:52;101047.06;;;3.28;94.51
17615;BME280;8926;49.720;6.576;2024-01-30T06:31:17;101040.16;;;3.30;94.38
17615;BME280;8926;49.720;6.576;2024-01-30T06:33:42;101041.03;;;3.23;93.20
17615;BME280;8926;49.720;6.576;2024-01-30T06:36:08;101035.88;;;3.23;95.08
17615;BME280;8926;49.720;6.576;2024-01-30T06:38:33;101029.00;;;3.24;95.53
17615;BME280;8926;49.720;6.576;2024-01-30T06:40:58;101031.56;;;3.27;94.94
17615;BME280;8926;49.720;6.576;2024-01-30T06:43:23;101029.84;;;3.27;95.23
17615;BME280;8926;49.720;6.576;2024-01-30T06:45:48;101029.00;;;3.25;94.88
17615;BME280;8926;49.720;6.576;2024-01-30T06:48:14;101024.69;;;3.27;95.75
17615;BME280;8926;49.720;6.576;2024-01-30T06:50:39;101036.72;;;3.28;95.04
17615;BME280;8926;49.720;6.576;2024-01-30T06:53:04;101030.69;;;3.29;95.28
17615;BME280;8926;49.720;6.576;2024-01-30T06:55:29;101035.00;;;3.30;94.43
17615;BME280;8926;49.720;6.576;2024-01-30T06:57:54;101037.56;;;3.30;94.79
17615;BME280;8926;49.720;6.576;2024-01-30T07:00:20;101040.16;;;3.30;94.25
17615;BME280;8926;49.720;6.576;2024-01-30T07:02:45;101039.31;;;3.28;93.91
17615;BME280;8926;49.720;6.576;2024-01-30T07:05:10;101044.47;;;3.27;94.71
17615;BME280;8926;49.720;6.576;2024-01-30T07:07:35;101046.19;;;3.28;94.24
17615;BME280;8926;49.720;6.576;2024-01-30T07:10:00;101045.31;;;3.33;95.30
17615;BME280;8926;49.720;6.576;2024-01-30T07:12:26;101040.13;;;3.35;94.47
17615;BME280;8926;49.720;6.576;2024-01-30T07:14:51;101038.31;;;3.45;95.66
17615;BME280;8926;49.720;6.576;2024-01-30T07:17:16;101040.88;;;3.48;94.90
17615;BME280;8926;49.720;6.576;2024-01-30T07:19:42;101041.75;;;3.47;95.08
17615;BME280;8926;49.720;6.576;2024-01-30T07:22:07;101038.31;;;3.45;93.88
17615;BME280;8926;49.720;6.576;2024-01-30T07:24:33;101046.91;;;3.47;94.40
17615;BME280;8926;49.720;6.576;2024-01-30T07:26:58;101045.19;;;3.49;94.46
17615;BME280;8926;49.720;6.576;2024-01-30T07:29:23;101045.19;;;3.46;93.97
17615;BME280;8926;49.720;6.576;2024-01-30T07:31:48;101062.44;;;3.40;94.24
17615;BME280;8926;49.720;6.576;2024-01-30T07:34:13;101050.38;;;3.46;94.64
17615;BME280;8926;49.720;6.576;2024-01-30T07:36:39;101061.53;;;3.52;95.18
17615;BME280;8926;49.720;6.576;2024-01-30T07:39:04;101058.91;;;3.57;94.65
17615;BME280;8926;49.720;6.576;2024-01-30T07:41:29;101063.16;;;3.64;94.97
17615;BME280;8926;49.720;6.576;2024-01-30T07:43:54;101062.28;;;3.65;94.92
17615;BME280;8926;49.720;6.576;2024-01-30T07:46:19;101065.72;;;3.65;93.58
17615;BME280;8926;49.720;6.576;2024-01-30T07:48:45;101071.81;;;3.61;94.21
17615;BME280;8926;49.720;6.576;2024-01-30T07:51:10;101070.06;;;3.63;95.26
17615;BME280;8926;49.720;6.576;2024-01-30T07:53:35;101070.03;;;3.65;94.16
17615;BME280;8926;49.720;6.576;2024-01-30T07:56:00;101072.59;;;3.68;94.61
17615;BME280;8926;49.720;6.576;2024-01-30T07:58:25;101072.56;;;3.74;95.21
17615;BME280;8926;49.720;6.576;2024-01-30T08:00:52;101069.09;;;3.78;95.50
17615;BME280;8926;49.720;6.576;2024-01-30T08:03:18;101069.06;;;3.81;95.70
17615;BME280;8926;49.720;6.576;2024-01-30T08:05:43;101073.38;;;3.82;94.96
17615;BME280;8926;49.720;6.576;2024-01-30T08:08:08;101070.75;;;3.88;93.74
17615;BME280;8926;49.720;6.576;2024-01-30T08:10:33;101067.31;;;3.86;94.18
17615;BME280;8926;49.720;6.576;2024-01-30T08:12:58;101079.28;;;3.96;95.03
17615;BME280;8926;49.720;6.576;2024-01-30T08:15:24;101067.16;;;4.04;93.62
17615;BME280;8926;49.720;6.576;2024-01-30T08:17:49;101058.50;;;4.05;94.51
17615;BME280;8926;49.720;6.576;2024-01-30T08:20:14;101062.78;;;4.13;94.58
17615;BME280;8926;49.720;6.576;2024-01-30T08:22:39;101066.13;;;4.19;93.57
17615;BME280;8926;49.720;6.576;2024-01-30T08:25:08;101069.50;;;4.29;93.71
17615;BME280;8926;49.720;6.576;2024-01-30T08:27:34;101071.13;;;4.39;92.49
17615;BME280;8926;49.720;6.576;2024-01-30T08:30:00;101073.56;;;4.51;92.46
17615;BME280;8926;49.720;6.576;2024-01-30T08:32:26;101075.22;;;4.58;91.47
17615;BME280;8926;49.720;6.576;2024-01-30T08:34:51;101077.66;;;4.70;91.30
17615;BME280;8926;49.720;6.576;2024-01-30T08:37:17;101074.91;;;4.86;91.41
17615;BME280;8926;49.720;6.576;2024-01-30T08:39:43;101079.16;;;4.93;90.24
17615;BME280;8926;49.720;6.576;2024-01-30T08:42:08;101074.78;;;4.95;90.40
17615;BME280;8926;49.720;6.576;2024-01-30T08:44:33;101092.03;;;4.96;92.02
17615;BME280;8926;49.720;6.576;2024-01-30T08:46:58;101090.19;;;5.07;92.91
17615;BME280;8926;49.720;6.576;2024-01-30T08:49:24;101089.13;;;5.22;94.71
17615;BME280;8926;49.720;6.576;2024-01-30T08:51:49;101085.41;;;5.41;94.14
17615;BME280;8926;49.720;6.576;2024-01-30T08:54:15;101089.38;;;5.65;94.99
17615;BME280;8926;49.720;6.576;2024-01-30T08:56:40;101081.38;;;5.78;95.02
17615;BME280;8926;49.720;6.576;2024-01-30T08:59:05;101086.47;;;5.85;92.41
17615;BME280;8926;49.720;6.576;2024-01-30T09:01:31;101073.63;;;5.77;92.28
17615;BME280;8926;49.720;6.576;2024-01-30T09:03:56;101080.72;;;5.67;91.59
17615;BME280;8926;49.720;6.576;2024-01-30T09:06:21;101084.25;;;5.62;92.08
17615;BME280;8926;49.720;6.576;2024-01-30T09:08:46;101081.63;;;5.63;92.17
17615;BME280;8926;49.720;6.576;2024-01-30T09:11:12;101094.63;;;5.62;92.82
17615;BME280;8926;49.720;6.576;2024-01-30T09:13:37;101091.09;;;5.66;93.31
17615;BME280;8926;49.720;6.576;2024-01-30T09:16:03;101090.81;;;5.83;94.59
17615;BME280;8926;49.720;6.576;2024-01-30T09:18:28;101088.78;;;6.04;94.85
17615;BME280;8926;49.720;6.576;2024-01-30T09:20:53;101093.59;;;6.26;95.37
17615;BME280;8926;49.720;6.576;2024-01-30T09:23:18;101086.44;;;6.40;94.95
17615;BME280;8926;49.720;6.576;2024-01-30T09:25:47;101094.88;;;6.51;95.00
17615;BME280;8926;49.720;6.576;2024-01-30T09:31:09;101073.59;;;6.77;94.64
17615;BME280;8926;49.720;6.576;2024-01-30T09:33:34;101081.22;;;6.86;93.94
17615;BME280;8926;49.720;6.576;2024-01-30T09:35:59;101088.91;;;6.91;93.57
17615;BME280;8926;49.720;6.576;2024-01-30T09:38:25;101097.47;;;6.96;93.33
17615;BME280;8926;49.720;6.576;2024-01-30T09:40:51;101099.19;;;6.97;92.78
17615;BME280;8926;49.720;6.576;2024-01-30T09:43:18;101106.03;;;7.01;93.19
17615;BME280;8926;49.720;6.576;2024-01-30T09:45:47;101104.97;;;7.09;93.52
17615;BME280;8926;49.720;6.576;2024-01-30T09:48:13;101109.13;;;7.18;93.25
17615;BME280;8926;49.720;6.576;2024-01-30T09:50:38;101115.84;;;7.28;93.18
17615;BME280;8926;49.720;6.576;2024-01-30T09:53:04;101108.69;;;7.39;92.74
17615;BME280;8926;49.720;6.576;2024-01-30T09:55:31;101111.06;;;7.50;91.86
17615;BME280;8926;49.720;6.576;2024-01-30T09:57:56;101108.19;;;7.61;91.58
17615;BME280;8926;49.720;6.576;2024-01-30T10:00:21;101106.22;;;7.72;91.04
17615;BME280;8926;49.720;6.576;2024-01-30T10:02:52;101105.91;;;7.84;90.18
17615;BME280;8926;49.720;6.576;2024-01-30T10:05:17;101109.19;;;7.92;89.48
17615;BME280;8926;49.720;6.576;2024-01-30T10:07:50;101111.63;;;8.00;89.34
17615;BME280;8926;49.720;6.576;2024-01-30T10:10:15;101115.72;;;8.08;88.61
17615;BME280;8926;49.720;6.576;2024-01-30T10:12:40;101115.38;;;8.24;88.12
17615;BME280;8926;49.720;6.576;2024-01-30T10:15:06;101111.72;;;8.31;87.89
17615;BME280;8926;49.720;6.576;2024-01-30T10:17:32;101116.88;;;8.32;87.06
17615;BME280;8926;49.720;6.576;2024-01-30T10:19:58;101107.16;;;8.40;87.13
17615;BME280;8926;49.720;6.576;2024-01-30T10:22:23;101112.97;;;8.50;86.93
17615;BME280;8926;49.720;6.576;2024-01-30T10:24:49;101122.41;;;8.54;86.46
17615;BME280;8926;49.720;6.576;2024-01-30T10:27:14;101122.38;;;8.56;86.60
17615;BME280;8926;49.720;6.576;2024-01-30T10:29:39;101121.34;;;8.61;86.38
17615;BME280;8926;49.720;6.576;2024-01-30T10:32:05;101117.06;;;8.59;86.16
17615;BME280;8926;49.720;6.576;2024-01-30T10:34:31;101118.75;;;8.61;86.13
17615;BME280;8926;49.720;6.576;2024-01-30T10:37:03;101120.41;;;8.64;85.66
17615;BME280;8926;49.720;6.576;2024-01-30T10:39:31;101123.06;;;8.62;86.18
17615;BME280;8926;49.720;6.576;2024-01-30T10:42:00;101125.69;;;8.61;86.51
17615;BME280;8926;49.720;6.576;2024-01-30T10:44:28;101124.69;;;8.66;86.25
17615;BME280;8926;49.720;6.576;2024-01-30T10:46:58;101121.91;;;8.72;85.87
17615;BME280;8926;49.720;6.576;2024-01-30T10:49:27;101117.38;;;8.80;85.94
17615;BME280;8926;49.720;6.576;2024-01-30T10:51:52;101111.63;;;8.99;85.44
17615;BME280;8926;49.720;6.576;2024-01-30T10:54:18;101108.28;;;9.25;85.27
17615;BME280;8926;49.720;6.576;2024-01-30T10:56:45;101113.78;;;9.43;84.29
17615;BME280;8926;49.720;6.576;2024-01-30T10:59:10;101118.16;;;9.43;83.73
17615;BME280;8926;49.720;6.576;2024-01-30T11:01:38;101116.31;;;9.46;83.13
17615;BME280;8926;49.720;6.576;2024-01-30T11:04:03;101106.88;;;9.42;82.68
17615;BME280;8926;49.720;6.576;2024-01-30T11:06:29;101101.81;;;9.36;83.03
17615;BME280;8926;49.720;6.576;2024-01-30T11:09:04;101095.72;;;9.37;83.34
17615;BME280;8926;49.720;6.576;2024-01-30T11:11:47;101096.53;;;9.39;83.32
17615;BME280;8926;49.720;6.576;2024-01-30T11:14:12;101090.19;;;9.48;83.51
17615;BME280;8926;49.720;6.576;2024-01-30T11:16:37;101095.50;;;9.45;82.70
17615;BME280;8926;49.720;6.576;2024-01-30T11:19:04;101094.63;;;9.44;83.51
17615;BME280;8926;49.720;6.576;2024-01-30T11:21:39;101094.59;;;9.46;83.55
17615;BME280;8926;49.720;6.576;2024-01-30T11:24:05;101089.50;;;9.41;83.81
17615;BME280;8926;49.720;6.576;2024-01-30T11:26:31;101086.91;;;9.41;83.54
17615;BME280;8926;49.720;6.576;2024-01-30T11:28:56;101086.94;;;9.40;84.31
17615;BME280;8926;49.720;6.576;2024-01-30T11:31:22;101084.19;;;9.44;83.82
17615;BME280;8926;49.720;6.576;2024-01-30T11:33:47;101085.91;;;9.45;83.93
17615;BME280;8926;49.720;6.576;2024-01-30T11:36:17;101088.44;;;9.48;83.66
17615;BME280;8926;49.720;6.576;2024-01-30T11:38:44;101083.31;;;9.45;84.01
17615;BME280;8926;49.720;6.576;2024-01-30T11:41:10;101084.97;;;9.48;83.68
17615;BME280;8926;49.720;6.576;2024-01-30T11:43:35;101088.53;;;9.45;83.74
17615;BME280;8926;49.720;6.576;2024-01-30T11:46:00;101092.84;;;9.46;83.78
17615;BME280;8926;49.720;6.576;2024-01-30T11:48:25;101091.03;;;9.48;84.27
17615;BME280;8926;49.720;6.576;2024-01-30T11:50:51;101084.13;;;9.47;83.70
17615;BME280;8926;49.720;6.576;2024-01-30T11:53:16;101077.28;;;9.43;84.45
17615;BME280;8926;49.720;6.576;2024-01-30T11:55:42;101078.19;;;9.42;84.30
17615;BME280;8926;49.720;6.576;2024-01-30T11:58:08;101074.66;;;9.43;84.49
17615;BME280;8926;49.720;6.576;2024-01-30T12:00:33;101076.34;;;9.46;84.47
17615;BME280;8926;49.720;6.576;2024-01-30T12:02:58;101070.06;;;9.51;84.40
17615;BME280;8926;49.720;6.576;2024-01-30T12:05:25;101052.63;;;9.53;84.57
17615;BME280;8926;49.720;6.576;2024-01-30T12:07:51;101054.34;;;9.55;83.94
17615;BME280;8926;49.720;6.576;2024-01-30T12:10:16;101061.25;;;9.56;84.47
17615;BME280;8926;49.720;6.576;2024-01-30T12:12:43;101059.66;;;9.51;84.19
17615;BME280;8926;49.720;6.576;2024-01-30T12:15:09;101064.78;;;9.55;84.19
17615;BME280;8926;49.720;6.576;2024-01-30T12:17:35;101066.38;;;9.59;84.43
17615;BME280;8926;49.720;6.576;2024-01-30T12:22:35;101052.59;;;9.81;83.56
17615;BME280;8926;49.720;6.576;2024-01-30T12:25:02;101055.97;;;9.85;84.08
17615;BME280;8926;49.720;6.576;2024-01-30T12:27:27;101051.31;;;9.93;83.66
17615;BME280;8926;49.720;6.576;2024-01-30T12:29:55;101046.19;;;9.90;82.98
17615;BME280;8926;49.720;6.576;2024-01-30T12:32:22;101039.28;;;9.89;83.11
17615;BME280;8926;49.720;6.576;2024-01-30T12:34:47;101047.97;;;9.90;83.64
17615;BME280;8926;49.720;6.576;2024-01-30T12:37:12;101051.31;;;9.93;83.54
17615;BME280;8926;49.720;6.576;2024-01-30T12:39:38;101046.91;;;9.95;83.18
17615;BME280;8926;49.720;6.576;2024-01-30T12:42:03;101052.94;;;9.97;83.68
17615;BME280;8926;49.720;6.576;2024-01-30T12:44:29;101056.25;;;10.02;83.44
17615;BME280;8926;49.720;6.576;2024-01-30T12:46:54;101059.56;;;10.07;83.24
17615;BME280;8926;49.720;6.576;2024-01-30T12:49:19;101051.69;;;10.09;83.15
17615;BME280;8926;49.720;6.576;2024-01-30T12:51:44;101050.81;;;10.08;83.73
17615;BME280;8926;49.720;6.576;2024-01-30T12:54:10;101047.22;;;10.12;83.44
17615;BME280;8926;49.720;6.576;2024-01-30T12:56:37;101050.59;;;10.14;83.65
17615;BME280;8926;49.720;6.576;2024-01-30T12:59:02;101051.59;;;10.12;83.80
17615;BME280;8926;49.720;6.576;2024-01-30T13:01:27;101042.75;;;10.14;83.85
17615;BME280;8926;49.720;6.576;2024-01-30T13:03:53;101043.56;;;10.16;83.62
17615;BME280;8926;49.720;6.576;2024-01-30T13:06:18;101045.28;;;10.17;83.55